sensor_id;sensor_type;location;lat;lon;timestamp;P1;durP1;ratioP1;P2;durP2;ratioP2
32780;SDS011;19136;47.032;15.502;2023-06-22T00:00:58;30.77;;;15.10;;
32780;SDS011;19136;47.032;15.502;2023-06-22T00:03:24;30.80;;;15.35;;
32780;SDS011;19136;47.032;15.502;2023-06-22T00:05:50;36.28;;;14.75;;
32780;SDS011;19136;47.032;15.502;2023-06-22T00:08:17;27.75;;;15.02;;
32780;SDS011;19136;47.032;15.502;2023-06-22T00:10:43;25.02;;;13.27;;
32780;SDS011;19136;47.032;15.502;2023-06-22T00:13:09;35.63;;;14.98;;
32780;SDS011;19136;47.032;15.502;2023-06-22T00:15:36;27.38;;;15.73;;
32780;SDS011;19136;47.032;15.502;2023-06-22T00:18:02;27.23;;;14.73;;
32780;SDS011;19136;47.032;15.502;2023-06-22T00:20:28;29.98;;;14.43;;
32780;SDS011;19136;47.032;15.502;2023-06-22T00:22:58;31.15;;;14.10;;
32780;SDS011;19136;47.032;15.502;2023-06-22T00:25:24;22.05;;;14.52;;
32780;SDS011;19136;47.032;15.502;2023-06-22T00:27:53;27.42;;;14.55;;
32780;SDS011;19136;47.032;15.502;2023-06-22T00:30:18;30.55;;;14.77;;
32780;SDS011;19136;47.032;15.502;2023-06-22T00:32:44;34.47;;;14.15;;
32780;SDS011;19136;47.032;15.502;2023-06-22T00:35:12;27.02;;;14.73;;
32780;SDS011;19136;47.032;15.502;2023-06-22T00:37:38;31.52;;;14.63;;
32780;SDS011;19136;47.032;15.502;2023-06-22T00:40:07;24.95;;;13.40;;
32780;SDS011;19136;47.032;15.502;2023-06-22T00:42:36;25.95;;;14.05;;
32780;SDS011;19136;47.032;15.502;2023-06-22T00:45:04;28.98;;;14.98;;
32780;SDS011;19136;47.032;15.502;2023-06-22T00:47:30;31.75;;;14.60;;
32780;SDS011;19136;47.032;15.502;2023-06-22T00:49:57;26.48;;;13.32;;
32780;SDS011;19136;47.032;15.502;2023-06-22T00:52:24;32.28;;;13.25;;
32780;SDS011;19136;47.032;15.502;2023-06-22T00:55:17;27.75;;;12.85;;
32780;SDS011;19136;47.032;15.502;2023-06-22T00:57:50;25.10;;;13.43;;
32780;SDS011;19136;47.032;15.502;2023-06-22T01:00:30;28.65;;;12.32;;
32780;SDS011;19136;47.032;15.502;2023-06-22T01:02:59;28.80;;;12.80;;
32780;SDS011;19136;47.032;15.502;2023-06-22T01:05:25;26.92;;;12.40;;
32780;SDS011;19136;47.032;15.502;2023-06-22T01:16:29;28.10;;;13.18;;
32780;SDS011;19136;47.032;15.502;2023-06-22T01:18:55;31.38;;;14.02;;
32780;SDS011;19136;47.032;15.502;2023-06-22T01:21:23;30.50;;;13.55;;
32780;SDS011;19136;47.032;15.502;2023-06-22T01:23:51;23.77;;;12.77;;
32780;SDS011;19136;47.032;15.502;2023-06-22T01:26:35;31.55;;;13.73;;
32780;SDS011;19136;47.032;15.502;2023-06-22T01:29:05;29.85;;;13.80;;
32780;SDS011;19136;47.032;15.502;2023-06-22T01:31:32;34.60;;;13.52;;
32780;SDS011;19136;47.032;15.502;2023-06-22T01:34:02;25.85;;;13.55;;
32780;SDS011;19136;47.032;15.502;2023-06-22T01:36:29;27.35;;;13.52;;
32780;SDS011;19136;47.032;15.502;2023-06-22T01:38:56;24.35;;;13.27;;
32780;SDS011;19136;47.032;15.502;2023-06-22T01:41:24;22.70;;;12.07;;
32780;SDS011;19136;47.032;15.502;2023-06-22T01:43:51;27.52;;;13.73;;
32780;SDS011;19136;47.032;15.502;2023-06-22T01:46:19;23.08;;;11.85;;
32780;SDS011;19136;47.032;15.502;2023-06-22T01:48:46;26.60;;;12.82;;
32780;SDS011;19136;47.032;15.502;2023-06-22T01:51:12;28.65;;;13.13;;
32780;SDS011;19136;47.032;15.502;2023-06-22T01:53:38;25.83;;;14.05;;
32780;SDS011;19136;47.032;15.502;2023-06-22T01:56:04;28.88;;;13.15;;
32780;SDS011;19136;47.032;15.502;2023-06-22T01:58:30;36.42;;;14.77;;
32780;SDS011;19136;47.032;15.502;2023-06-22T02:00:58;27.77;;;13.35;;
32780;SDS011;19136;47.032;15.502;2023-06-22T02:03:37;26.10;;;12.50;;
32780;SDS011;19136;47.032;15.502;2023-06-22T02:06:06;27.95;;;12.45;;
32780;SDS011;19136;47.032;15.502;2023-06-22T02:08:45;24.25;;;12.32;;
32780;SDS011;19136;47.032;15.502;2023-06-22T02:11:15;28.00;;;12.38;;
32780;SDS011;19136;47.032;15.502;2023-06-22T02:13:42;38.03;;;12.88;;
32780;SDS011;19136;47.032;15.502;2023-06-22T02:16:09;26.42;;;12.98;;
32780;SDS011;19136;47.032;15.502;2023-06-22T02:18:39;27.65;;;12.68;;
32780;SDS011;19136;47.032;15.502;2023-06-22T02:21:11;27.27;;;13.20;;
32780;SDS011;19136;47.032;15.502;2023-06-22T02:23:37;28.13;;;13.85;;
32780;SDS011;19136;47.032;15.502;2023-06-22T02:26:02;31.02;;;13.38;;
32780;SDS011;19136;47.032;15.502;2023-06-22T02:28:29;34.55;;;13.88;;
32780;SDS011;19136;47.032;15.502;2023-06-22T02:30:55;39.85;;;14.05;;
32780;SDS011;19136;47.032;15.502;2023-06-22T02:33:20;28.95;;;14.23;;
32780;SDS011;19136;47.032;15.502;2023-06-22T02:35:46;27.33;;;12.82;;
32780;SDS011;19136;47.032;15.502;2023-06-22T02:38:14;24.48;;;12.48;;
32780;SDS011;19136;47.032;15.502;2023-06-22T02:40:40;30.73;;;14.65;;
32780;SDS011;19136;47.032;15.502;2023-06-22T02:43:06;24.25;;;13.35;;
32780;SDS011;19136;47.032;15.502;2023-06-22T02:45:31;26.33;;;13.35;;
32780;SDS011;19136;47.032;15.502;2023-06-22T02:47:57;25.38;;;13.00;;
32780;SDS011;19136;47.032;15.502;2023-06-22T02:50:23;26.55;;;12.52;;
32780;SDS011;19136;47.032;15.502;2023-06-22T02:52:50;25.73;;;12.95;;
32780;SDS011;19136;47.032;15.502;2023-06-22T02:55:15;27.98;;;12.07;;
32780;SDS011;19136;47.032;15.502;2023-06-22T02:57:46;24.45;;;10.93;;
32780;SDS011;19136;47.032;15.502;2023-06-22T03:00:13;31.05;;;12.20;;
32780;SDS011;19136;47.032;15.502;2023-06-22T03:02:48;25.90;;;12.20;;
32780;SDS011;19136;47.032;15.502;2023-06-22T03:05:15;25.52;;;12.43;;
32780;SDS011;19136;47.032;15.502;2023-06-22T03:07:44;27.73;;;12.30;;
32780;SDS011;19136;47.032;15.502;2023-06-22T03:10:10;27.15;;;11.70;;
32780;SDS011;19136;47.032;15.502;2023-06-22T03:12:37;22.63;;;11.93;;
32780;SDS011;19136;47.032;15.502;2023-06-22T03:15:06;23.40;;;12.45;;
32780;SDS011;19136;47.032;15.502;2023-06-22T03:17:36;25.25;;;12.73;;
32780;SDS011;19136;47.032;15.502;2023-06-22T03:20:07;32.72;;;13.02;;
32780;SDS011;19136;47.032;15.502;2023-06-22T03:22:40;24.85;;;12.85;;
32780;SDS011;19136;47.032;15.502;2023-06-22T03:25:07;23.30;;;12.35;;
32780;SDS011;19136;47.032;15.502;2023-06-22T03:27:40;25.45;;;13.07;;
32780;SDS011;19136;47.032;15.502;2023-06-22T03:30:07;27.73;;;12.70;;
32780;SDS011;19136;47.032;15.502;2023-06-22T03:32:34;29.20;;;12.55;;
32780;SDS011;19136;47.032;15.502;2023-06-22T03:35:01;28.17;;;12.75;;
32780;SDS011;19136;47.032;15.502;2023-06-22T03:37:28;37.40;;;13.93;;
32780;SDS011;19136;47.032;15.502;2023-06-22T03:39:54;28.25;;;13.02;;
32780;SDS011;19136;47.032;15.502;2023-06-22T03:42:20;24.52;;;12.30;;
32780;SDS011;19136;47.032;15.502;2023-06-22T03:44:46;28.38;;;13.32;;
32780;SDS011;19136;47.032;15.502;2023-06-22T03:47:11;25.08;;;12.85;;
32780;SDS011;19136;47.032;15.502;2023-06-22T03:49:37;25.08;;;12.05;;
32780;SDS011;19136;47.032;15.502;2023-06-22T03:52:03;26.67;;;13.13;;
32780;SDS011;19136;47.032;15.502;2023-06-22T03:54:30;25.20;;;13.10;;
32780;SDS011;19136;47.032;15.502;2023-06-22T03:56:58;32.50;;;13.90;;
32780;SDS011;19136;47.032;15.502;2023-06-22T03:59:24;22.73;;;12.10;;
32780;SDS011;19136;47.032;15.502;2023-06-22T04:01:50;34.67;;;13.25;;
32780;SDS011;19136;47.032;15.502;2023-06-22T04:04:17;29.67;;;13.38;;
32780;SDS011;19136;47.032;15.502;2023-06-22T04:06:43;27.00;;;12.25;;
32780;SDS011;19136;47.032;15.502;2023-06-22T04:09:08;25.15;;;12.45;;
32780;SDS011;19136;47.032;15.502;2023-06-22T04:11:34;20.67;;;12.30;;
32780;SDS011;19136;47.032;15.502;2023-06-22T04:14:00;21.23;;;11.98;;
32780;SDS011;19136;47.032;15.502;2023-06-22T04:16:25;18.33;;;11.25;;
32780;SDS011;19136;47.032;15.502;2023-06-22T04:18:51;20.67;;;11.02;;
32780;SDS011;19136;47.032;15.502;2023-06-22T04:21:17;26.10;;;12.35;;
32780;SDS011;19136;47.032;15.502;2023-06-22T04:23:44;23.20;;;12.50;;
32780;SDS011;19136;47.032;15.502;2023-06-22T04:26:11;20.10;;;11.00;;
32780;SDS011;19136;47.032;15.502;2023-06-22T04:28:37;23.45;;;11.73;;
32780;SDS011;19136;47.032;15.502;2023-06-22T04:31:03;26.23;;;12.70;;
32780;SDS011;19136;47.032;15.502;2023-06-22T04:33:32;23.05;;;12.00;;
32780;SDS011;19136;47.032;15.502;2023-06-22T04:35:58;22.85;;;11.55;;
32780;SDS011;19136;47.032;15.502;2023-06-22T04:38:26;32.50;;;13.00;;
32780;SDS011;19136;47.032;15.502;2023-06-22T04:40:52;27.40;;;12.32;;
32780;SDS011;19136;47.032;15.502;2023-06-22T04:43:18;21.30;;;10.82;;
32780;SDS011;19136;47.032;15.502;2023-06-22T04:45:45;22.13;;;10.80;;
32780;SDS011;19136;47.032;15.502;2023-06-22T04:48:10;21.23;;;11.98;;
32780;SDS011;19136;47.032;15.502;2023-06-22T04:50:41;27.42;;;11.35;;
32780;SDS011;19136;47.032;15.502;2023-06-22T04:53:07;25.25;;;11.85;;
32780;SDS011;19136;47.032;15.502;2023-06-22T04:55:35;29.42;;;13.05;;
32780;SDS011;19136;47.032;15.502;2023-06-22T04:58:03;19.90;;;10.95;;
32780;SDS011;19136;47.032;15.502;2023-06-22T05:00:29;23.45;;;11.80;;
32780;SDS011;19136;47.032;15.502;2023-06-22T05:02:56;24.67;;;12.38;;
32780;SDS011;19136;47.032;15.502;2023-06-22T05:05:23;23.35;;;12.00;;
32780;SDS011;19136;47.032;15.502;2023-06-22T05:07:50;26.95;;;12.70;;
32780;SDS011;19136;47.032;15.502;2023-06-22T05:10:18;25.35;;;12.35;;
32780;SDS011;19136;47.032;15.502;2023-06-22T05:12:46;21.67;;;12.65;;
32780;SDS011;19136;47.032;15.502;2023-06-22T05:15:12;26.75;;;12.15;;
32780;SDS011;19136;47.032;15.502;2023-06-22T05:17:38;30.45;;;12.00;;
32780;SDS011;19136;47.032;15.502;2023-06-22T05:20:10;25.88;;;12.20;;
32780;SDS011;19136;47.032;15.502;2023-06-22T05:22:37;29.60;;;12.38;;
32780;SDS011;19136;47.032;15.502;2023-06-22T05:25:04;26.17;;;12.80;;
32780;SDS011;19136;47.032;15.502;2023-06-22T05:27:34;22.42;;;12.02;;
32780;SDS011;19136;47.032;15.502;2023-06-22T05:30:04;26.48;;;12.60;;
32780;SDS011;19136;47.032;15.502;2023-06-22T05:32:32;23.55;;;12.85;;
32780;SDS011;19136;47.032;15.502;2023-06-22T05:34:58;24.40;;;12.20;;
32780;SDS011;19136;47.032;15.502;2023-06-22T05:37:24;24.10;;;12.90;;
32780;SDS011;19136;47.032;15.502;2023-06-22T05:39:50;26.85;;;12.73;;
32780;SDS011;19136;47.032;15.502;2023-06-22T05:42:16;26.95;;;13.07;;
32780;SDS011;19136;47.032;15.502;2023-06-22T05:44:41;28.00;;;12.45;;
32780;SDS011;19136;47.032;15.502;2023-06-22T05:47:07;28.98;;;12.13;;
32780;SDS011;19136;47.032;15.502;2023-06-22T05:49:32;21.13;;;11.68;;
32780;SDS011;19136;47.032;15.502;2023-06-22T05:51:58;29.02;;;12.02;;
32780;SDS011;19136;47.032;15.502;2023-06-22T05:54:25;24.83;;;11.57;;
32780;SDS011;19136;47.032;15.502;2023-06-22T05:56:52;27.05;;;11.80;;
32780;SDS011;19136;47.032;15.502;2023-06-22T05:59:18;24.63;;;12.25;;
32780;SDS011;19136;47.032;15.502;2023-06-22T06:01:43;25.90;;;12.15;;
32780;SDS011;19136;47.032;15.502;2023-06-22T06:04:09;30.38;;;11.88;;
32780;SDS011;19136;47.032;15.502;2023-06-22T06:06:34;27.88;;;12.90;;
32780;SDS011;19136;47.032;15.502;2023-06-22T06:09:03;26.35;;;12.38;;
32780;SDS011;19136;47.032;15.502;2023-06-22T06:11:29;26.42;;;12.23;;
32780;SDS011;19136;47.032;15.502;2023-06-22T06:13:55;31.38;;;12.55;;
32780;SDS011;19136;47.032;15.502;2023-06-22T06:16:21;26.17;;;11.65;;
32780;SDS011;19136;47.032;15.502;2023-06-22T06:18:47;24.42;;;12.30;;
32780;SDS011;19136;47.032;15.502;2023-06-22T06:21:16;32.72;;;11.98;;
32780;SDS011;19136;47.032;15.502;2023-06-22T06:23:41;27.58;;;11.55;;
32780;SDS011;19136;47.032;15.502;2023-06-22T06:26:07;26.73;;;10.75;;
32780;SDS011;19136;47.032;15.502;2023-06-22T06:28:34;28.67;;;12.00;;
32780;SDS011;19136;47.032;15.502;2023-06-22T06:31:00;30.75;;;13.40;;
32780;SDS011;19136;47.032;15.502;2023-06-22T06:33:26;30.58;;;12.82;;
32780;SDS011;19136;47.032;15.502;2023-06-22T06:35:52;28.85;;;12.38;;
32780;SDS011;19136;47.032;15.502;2023-06-22T06:38:17;26.92;;;11.65;;
32780;SDS011;19136;47.032;15.502;2023-06-22T06:40:43;19.55;;;10.48;;
32780;SDS011;19136;47.032;15.502;2023-06-22T06:43:10;23.15;;;10.88;;
32780;SDS011;19136;47.032;15.502;2023-06-22T06:45:36;27.90;;;11.18;;
32780;SDS011;19136;47.032;15.502;2023-06-22T06:48:01;25.45;;;11.15;;
32780;SDS011;19136;47.032;15.502;2023-06-22T06:50:27;25.75;;;11.40;;
32780;SDS011;19136;47.032;15.502;2023-06-22T06:52:53;20.42;;;10.68;;
32780;SDS011;19136;47.032;15.502;2023-06-22T06:55:19;23.42;;;11.18;;
32780;SDS011;19136;47.032;15.502;2023-06-22T06:57:45;24.90;;;12.13;;
32780;SDS011;19136;47.032;15.502;2023-06-22T07:00:13;25.77;;;11.05;;
32780;SDS011;19136;47.032;15.502;2023-06-22T07:02:41;21.38;;;11.48;;
32780;SDS011;19136;47.032;15.502;2023-06-22T07:05:08;23.45;;;10.65;;
32780;SDS011;19136;47.032;15.502;2023-06-22T07:07:35;24.13;;;10.77;;
32780;SDS011;19136;47.032;15.502;2023-06-22T07:10:04;21.23;;;10.85;;
32780;SDS011;19136;47.032;15.502;2023-06-22T07:12:30;21.48;;;10.45;;
32780;SDS011;19136;47.032;15.502;2023-06-22T07:15:08;18.77;;;10.20;;
32780;SDS011;19136;47.032;15.502;2023-06-22T07:17:41;23.38;;;10.52;;
32780;SDS011;19136;47.032;15.502;2023-06-22T07:20:07;21.30;;;10.40;;
32780;SDS011;19136;47.032;15.502;2023-06-22T07:22:37;22.92;;;9.50;;
32780;SDS011;19136;47.032;15.502;2023-06-22T07:25:04;21.60;;;9.45;;
32780;SDS011;19136;47.032;15.502;2023-06-22T07:27:38;16.90;;;9.13;;
32780;SDS011;19136;47.032;15.502;2023-06-22T07:30:08;20.63;;;9.65;;
32780;SDS011;19136;47.032;15.502;2023-06-22T07:32:37;20.27;;;9.80;;
32780;SDS011;19136;47.032;15.502;2023-06-22T07:35:03;18.27;;;9.50;;
32780;SDS011;19136;47.032;15.502;2023-06-22T07:37:30;19.50;;;10.15;;
32780;SDS011;19136;47.032;15.502;2023-06-22T07:39:56;23.90;;;11.43;;
32780;SDS011;19136;47.032;15.502;2023-06-22T07:42:24;21.90;;;10.40;;
32780;SDS011;19136;47.032;15.502;2023-06-22T07:44:51;26.23;;;10.43;;
32780;SDS011;19136;47.032;15.502;2023-06-22T07:47:17;22.95;;;9.93;;
32780;SDS011;19136;47.032;15.502;2023-06-22T07:49:47;21.70;;;10.35;;
32780;SDS011;19136;47.032;15.502;2023-06-22T07:52:22;27.30;;;10.25;;
32780;SDS011;19136;47.032;15.502;2023-06-22T07:54:48;24.90;;;9.82;;
32780;SDS011;19136;47.032;15.502;2023-06-22T07:57:14;24.50;;;11.18;;
32780;SDS011;19136;47.032;15.502;2023-06-22T07:59:43;23.33;;;10.27;;
32780;SDS011;19136;47.032;15.502;2023-06-22T08:02:13;20.92;;;9.88;;
32780;SDS011;19136;47.032;15.502;2023-06-22T08:04:39;22.23;;;10.80;;
32780;SDS011;19136;47.032;15.502;2023-06-22T08:07:07;20.48;;;10.82;;
32780;SDS011;19136;47.032;15.502;2023-06-22T08:09:36;17.38;;;9.52;;
32780;SDS011;19136;47.032;15.502;2023-06-22T08:12:04;24.35;;;10.98;;
32780;SDS011;19136;47.032;15.502;2023-06-22T08:14:30;24.65;;;10.85;;
32780;SDS011;19136;47.032;15.502;2023-06-22T08:16:56;25.25;;;9.73;;
32780;SDS011;19136;47.032;15.502;2023-06-22T08:19:23;26.25;;;10.23;;
32780;SDS011;19136;47.032;15.502;2023-06-22T08:21:49;21.02;;;10.18;;
32780;SDS011;19136;47.032;15.502;2023-06-22T08:24:15;28.13;;;10.20;;
32780;SDS011;19136;47.032;15.502;2023-06-22T08:26:41;23.80;;;10.65;;
32780;SDS011;19136;47.032;15.502;2023-06-22T08:29:11;19.25;;;9.77;;
32780;SDS011;19136;47.032;15.502;2023-06-22T08:31:38;23.10;;;9.95;;
32780;SDS011;19136;47.032;15.502;2023-06-22T08:34:04;20.27;;;9.82;;
32780;SDS011;19136;47.032;15.502;2023-06-22T08:36:30;23.83;;;10.25;;
32780;SDS011;19136;47.032;15.502;2023-06-22T08:39:04;26.27;;;10.18;;
32780;SDS011;19136;47.032;15.502;2023-06-22T08:41:30;24.58;;;10.18;;
32780;SDS011;19136;47.032;15.502;2023-06-22T08:43:57;25.40;;;10.45;;
32780;SDS011;19136;47.032;15.502;2023-06-22T08:46:26;18.58;;;10.13;;
32780;SDS011;19136;47.032;15.502;2023-06-22T08:48:57;19.67;;;9.80;;
32780;SDS011;19136;47.032;15.502;2023-06-22T08:51:23;17.10;;;9.23;;
32780;SDS011;19136;47.032;15.502;2023-06-22T08:53:49;38.28;;;10.48;;
32780;SDS011;19136;47.032;15.502;2023-06-22T08:56:16;26.83;;;9.85;;
32780;SDS011;19136;47.032;15.502;2023-06-22T08:58:42;21.98;;;10.23;;
32780;SDS011;19136;47.032;15.502;2023-06-22T09:01:12;22.73;;;9.60;;
32780;SDS011;19136;47.032;15.502;2023-06-22T09:03:41;23.80;;;9.30;;
32780;SDS011;19136;47.032;15.502;2023-06-22T09:06:07;21.10;;;9.18;;
32780;SDS011;19136;47.032;15.502;2023-06-22T09:08:35;20.33;;;10.35;;
32780;SDS011;19136;47.032;15.502;2023-06-22T09:11:01;17.48;;;10.13;;
32780;SDS011;19136;47.032;15.502;2023-06-22T09:13:30;25.40;;;9.48;;
32780;SDS011;19136;47.032;15.502;2023-06-22T09:16:00;18.25;;;9.20;;
32780;SDS011;19136;47.032;15.502;2023-06-22T09:18:27;24.27;;;9.05;;
32780;SDS011;19136;47.032;15.502;2023-06-22T09:20:54;19.17;;;9.82;;
32780;SDS011;19136;47.032;15.502;2023-06-22T09:23:21;26.25;;;9.25;;
32780;SDS011;19136;47.032;15.502;2023-06-22T09:25:48;22.00;;;9.63;;
32780;SDS011;19136;47.032;15.502;2023-06-22T09:28:17;20.48;;;9.75;;
32780;SDS011;19136;47.032;15.502;2023-06-22T09:30:43;25.13;;;9.75;;
32780;SDS011;19136;47.032;15.502;2023-06-22T09:33:12;21.10;;;10.38;;
32780;SDS011;19136;47.032;15.502;2023-06-22T09:35:38;21.05;;;9.68;;
32780;SDS011;19136;47.032;15.502;2023-06-22T09:38:04;25.38;;;10.07;;
32780;SDS011;19136;47.032;15.502;2023-06-22T09:40:30;20.52;;;9.10;;
32780;SDS011;19136;47.032;15.502;2023-06-22T09:42:58;23.48;;;9.40;;
32780;SDS011;19136;47.032;15.502;2023-06-22T09:45:24;23.00;;;10.02;;
32780;SDS011;19136;47.032;15.502;2023-06-22T09:47:50;23.77;;;10.18;;
32780;SDS011;19136;47.032;15.502;2023-06-22T09:50:16;20.38;;;9.52;;
32780;SDS011;19136;47.032;15.502;2023-06-22T09:52:42;21.83;;;9.80;;
32780;SDS011;19136;47.032;15.502;2023-06-22T09:55:10;25.90;;;10.02;;
32780;SDS011;19136;47.032;15.502;2023-06-22T09:57:35;18.13;;;8.82;;
32780;SDS011;19136;47.032;15.502;2023-06-22T10:00:03;20.83;;;9.88;;
32780;SDS011;19136;47.032;15.502;2023-06-22T10:02:34;20.58;;;9.82;;
32780;SDS011;19136;47.032;15.502;2023-06-22T10:05:01;22.13;;;9.27;;
32780;SDS011;19136;47.032;15.502;2023-06-22T10:07:27;18.67;;;9.85;;
32780;SDS011;19136;47.032;15.502;2023-06-22T10:09:53;22.10;;;9.30;;
32780;SDS011;19136;47.032;15.502;2023-06-22T10:12:19;21.65;;;10.15;;
32780;SDS011;19136;47.032;15.502;2023-06-22T10:14:44;19.95;;;9.40;;
32780;SDS011;19136;47.032;15.502;2023-06-22T10:17:10;19.60;;;10.50;;
32780;SDS011;19136;47.032;15.502;2023-06-22T10:19:36;19.23;;;10.20;;
32780;SDS011;19136;47.032;15.502;2023-06-22T10:22:03;20.98;;;10.50;;
32780;SDS011;19136;47.032;15.502;2023-06-22T10:24:32;21.88;;;9.70;;
32780;SDS011;19136;47.032;15.502;2023-06-22T10:26:57;23.38;;;11.00;;
32780;SDS011;19136;47.032;15.502;2023-06-22T10:29:23;21.58;;;9.85;;
32780;SDS011;19136;47.032;15.502;2023-06-22T10:31:48;26.33;;;10.13;;
32780;SDS011;19136;47.032;15.502;2023-06-22T10:34:14;22.52;;;10.15;;
32780;SDS011;19136;47.032;15.502;2023-06-22T10:36:40;22.38;;;9.95;;
32780;SDS011;19136;47.032;15.502;2023-06-22T10:39:06;21.40;;;9.50;;
32780;SDS011;19136;47.032;15.502;2023-06-22T10:41:31;23.98;;;10.35;;
32780;SDS011;19136;47.032;15.502;2023-06-22T10:43:57;21.98;;;10.02;;
32780;SDS011;19136;47.032;15.502;2023-06-22T10:46:26;20.10;;;10.40;;
32780;SDS011;19136;47.032;15.502;2023-06-22T10:48:53;23.85;;;10.38;;
32780;SDS011;19136;47.032;15.502;2023-06-22T10:51:20;21.42;;;10.88;;
32780;SDS011;19136;47.032;15.502;2023-06-22T10:53:46;15.73;;;9.52;;
32780;SDS011;19136;47.032;15.502;2023-06-22T10:56:11;22.77;;;10.70;;
32780;SDS011;19136;47.032;15.502;2023-06-22T10:58:37;21.77;;;10.23;;
32780;SDS011;19136;47.032;15.502;2023-06-22T11:01:03;21.98;;;10.50;;
32780;SDS011;19136;47.032;15.502;2023-06-22T11:03:28;17.30;;;10.02;;
32780;SDS011;19136;47.032;15.502;2023-06-22T11:05:54;22.80;;;10.48;;
32780;SDS011;19136;47.032;15.502;2023-06-22T11:08:20;23.30;;;9.88;;
32780;SDS011;19136;47.032;15.502;2023-06-22T11:10:45;26.38;;;11.32;;
32780;SDS011;19136;47.032;15.502;2023-06-22T11:13:11;30.13;;;11.07;;
32780;SDS011;19136;47.032;15.502;2023-06-22T11:15:37;22.02;;;10.00;;
32780;SDS011;19136;47.032;15.502;2023-06-22T11:18:02;20.80;;;10.52;;
32780;SDS011;19136;47.032;15.502;2023-06-22T11:20:30;20.98;;;9.85;;
32780;SDS011;19136;47.032;15.502;2023-06-22T11:22:56;25.92;;;11.05;;
32780;SDS011;19136;47.032;15.502;2023-06-22T11:25:22;25.60;;;10.10;;
32780;SDS011;19136;47.032;15.502;2023-06-22T11:27:47;26.48;;;10.68;;
32780;SDS011;19136;47.032;15.502;2023-06-22T11:30:13;26.80;;;10.43;;
32780;SDS011;19136;47.032;15.502;2023-06-22T11:32:39;24.70;;;10.30;;
32780;SDS011;19136;47.032;15.502;2023-06-22T11:35:05;20.38;;;9.68;;
32780;SDS011;19136;47.032;15.502;2023-06-22T11:37:34;23.48;;;11.00;;
32780;SDS011;19136;47.032;15.502;2023-06-22T11:40:02;29.25;;;10.98;;
32780;SDS011;19136;47.032;15.502;2023-06-22T11:42:30;27.73;;;10.70;;
32780;SDS011;19136;47.032;15.502;2023-06-22T11:44:56;19.75;;;11.00;;
32780;SDS011;19136;47.032;15.502;2023-06-22T11:47:21;24.15;;;11.20;;
32780;SDS011;19136;47.032;15.502;2023-06-22T11:49:47;23.23;;;10.50;;
32780;SDS011;19136;47.032;15.502;2023-06-22T11:52:13;21.27;;;10.95;;
32780;SDS011;19136;47.032;15.502;2023-06-22T11:54:38;17.05;;;10.18;;
32780;SDS011;19136;47.032;15.502;2023-06-22T11:57:04;21.63;;;10.38;;
32780;SDS011;19136;47.032;15.502;2023-06-22T11:59:30;25.52;;;10.70;;
32780;SDS011;19136;47.032;15.502;2023-06-22T12:01:56;21.30;;;10.25;;
32780;SDS011;19136;47.032;15.502;2023-06-22T12:04:23;25.00;;;10.95;;
32780;SDS011;19136;47.032;15.502;2023-06-22T12:06:49;19.65;;;11.60;;
32780;SDS011;19136;47.032;15.502;2023-06-22T12:09:14;25.77;;;10.82;;
32780;SDS011;19136;47.032;15.502;2023-06-22T12:11:40;21.63;;;11.00;;
32780;SDS011;19136;47.032;15.502;2023-06-22T12:14:05;26.52;;;11.75;;
32780;SDS011;19136;47.032;15.502;2023-06-22T12:16:31;18.67;;;9.85;;
32780;SDS011;19136;47.032;15.502;2023-06-22T12:18:57;23.67;;;9.43;;
32780;SDS011;19136;47.032;15.502;2023-06-22T12:21:22;20.85;;;10.40;;
32780;SDS011;19136;47.032;15.502;2023-06-22T12:23:48;27.67;;;10.38;;
32780;SDS011;19136;47.032;15.502;2023-06-22T12:26:14;20.63;;;10.48;;
32780;SDS011;19136;47.032;15.502;2023-06-22T12:28:40;24.55;;;10.25;;
32780;SDS011;19136;47.032;15.502;2023-06-22T12:31:05;22.35;;;10.60;;
32780;SDS011;19136;47.032;15.502;2023-06-22T12:33:31;22.95;;;10.55;;
32780;SDS011;19136;47.032;15.502;2023-06-22T12:35:57;21.25;;;10.32;;
32780;SDS011;19136;47.032;15.502;2023-06-22T12:38:22;21.48;;;10.43;;
32780;SDS011;19136;47.032;15.502;2023-06-22T12:40:50;23.70;;;10.90;;
32780;SDS011;19136;47.032;15.502;2023-06-22T12:43:16;23.15;;;10.85;;
32780;SDS011;19136;47.032;15.502;2023-06-22T12:45:42;21.42;;;9.73;;
32780;SDS011;19136;47.032;15.502;2023-06-22T12:48:07;22.75;;;10.77;;
32780;SDS011;19136;47.032;15.502;2023-06-22T12:50:33;21.95;;;10.40;;
32780;SDS011;19136;47.032;15.502;2023-06-22T12:52:59;20.60;;;10.35;;
32780;SDS011;19136;47.032;15.502;2023-06-22T12:55:27;20.70;;;10.15;;
32780;SDS011;19136;47.032;15.502;2023-06-22T12:57:53;22.70;;;10.90;;
32780;SDS011;19136;47.032;15.502;2023-06-22T13:00:19;25.25;;;10.18;;
32780;SDS011;19136;47.032;15.502;2023-06-22T13:02:45;25.45;;;10.90;;
32780;SDS011;19136;47.032;15.502;2023-06-22T13:05:11;23.73;;;10.05;;
32780;SDS011;19136;47.032;15.502;2023-06-22T13:07:38;26.52;;;11.30;;
32780;SDS011;19136;47.032;15.502;2023-06-22T13:10:06;22.52;;;10.40;;
32780;SDS011;19136;47.032;15.502;2023-06-22T13:12:32;22.13;;;10.65;;
32780;SDS011;19136;47.032;15.502;2023-06-22T13:14:59;23.35;;;10.60;;
32780;SDS011;19136;47.032;15.502;2023-06-22T13:17:25;28.98;;;11.18;;
32780;SDS011;19136;47.032;15.502;2023-06-22T13:19:51;25.38;;;10.50;;
32780;SDS011;19136;47.032;15.502;2023-06-22T13:22:28;23.70;;;10.13;;
32780;SDS011;19136;47.032;15.502;2023-06-22T13:24:56;26.27;;;11.10;;
32780;SDS011;19136;47.032;15.502;2023-06-22T13:27:22;21.77;;;10.85;;
32780;SDS011;19136;47.032;15.502;2023-06-22T13:29:49;20.38;;;11.15;;
32780;SDS011;19136;47.032;15.502;2023-06-22T13:32:15;34.50;;;12.20;;
32780;SDS011;19136;47.032;15.502;2023-06-22T13:34:42;26.30;;;11.27;;
32780;SDS011;19136;47.032;15.502;2023-06-22T13:37:11;25.80;;;11.18;;
32780;SDS011;19136;47.032;15.502;2023-06-22T13:39:37;22.58;;;11.05;;
32780;SDS011;19136;47.032;15.502;2023-06-22T13:42:03;26.67;;;10.95;;
32780;SDS011;19136;47.032;15.502;2023-06-22T13:44:29;19.58;;;11.43;;
32780;SDS011;19136;47.032;15.502;2023-06-22T13:46:59;22.83;;;11.32;;
32780;SDS011;19136;47.032;15.502;2023-06-22T13:49:25;27.77;;;11.38;;
32780;SDS011;19136;47.032;15.502;2023-06-22T13:51:51;26.73;;;11.23;;
32780;SDS011;19136;47.032;15.502;2023-06-22T13:54:17;18.75;;;10.65;;
32780;SDS011;19136;47.032;15.502;2023-06-22T13:56:42;28.75;;;10.80;;
32780;SDS011;19136;47.032;15.502;2023-06-22T13:59:08;20.92;;;11.68;;
32780;SDS011;19136;47.032;15.502;2023-06-22T14:01:36;23.33;;;10.75;;
32780;SDS011;19136;47.032;15.502;2023-06-22T14:04:05;22.30;;;11.10;;
32780;SDS011;19136;47.032;15.502;2023-06-22T14:06:31;28.55;;;11.57;;
32780;SDS011;19136;47.032;15.502;2023-06-22T14:08:56;27.65;;;12.02;;
32780;SDS011;19136;47.032;15.502;2023-06-22T14:11:22;25.88;;;11.65;;
32780;SDS011;19136;47.032;15.502;2023-06-22T14:13:48;27.08;;;11.98;;
32780;SDS011;19136;47.032;15.502;2023-06-22T14:16:13;27.15;;;11.63;;
32780;SDS011;19136;47.032;15.502;2023-06-22T14:18:39;26.17;;;11.45;;